Time;durP1;ratioP1;P1;durP2;ratioP2;P2;SDS_P1;SDS_P2;PMS_P1;PMS_P2;Temp;Humidity;BMP_temperature;BMP_pressure;BME280_temperature;BME280_humidity;BME280_pressure;Samples;Min_cycle;Max_cycle;Signal;HPM_P1;HPM_P2
2021/08/15 00:01:52;;;;;;;11.57;7.82;;;;;;;;;;8258100;28;20342;-70
2021/08/15 00:05:58;;;;;;;12.82;8.55;;;;;;;;;;8242735;28;20063;-71
2021/08/15 00:10:04;;;;;;;13.07;9.38;;;;;;;;;;8257277;28;20376;-71
2021/08/15 00:14:10;;;;;;;14.23;8.23;;;;;;;;;;8255721;28;20063;-71
2021/08/15 00:18:15;;;;;;;16.15;8.45;;;;;;;;;;8257962;28;20376;-71
2021/08/15 00:22:20;;;;;;;12.60;7.65;;;;;;;;;;8240262;28;20329;-71
2021/08/15 00:26:25;;;;;;;13.57;8.80;;;;;;;;;;8258400;28;20215;-71
2021/08/15 00:30:30;;;;;;;11.80;7.80;;;;;;;;;;8257295;28;20372;-71
2021/08/15 00:34:36;;;;;;;13.50;7.20;;;;;;;;;;8255092;28;20057;-71
2021/08/15 00:38:41;;;;;;;15.90;7.78;;;;;;;;;;8263054;28;20330;-71
2021/08/15 00:42:46;;;;;;;12.77;7.93;;;;;;;;;;8263440;28;20363;-71
2021/08/15 00:46:52;;;;;;;13.70;8.18;;;;;;;;;;8262326;28;20075;-71
2021/08/15 00:50:57;;;;;;;12.75;7.70;;;;;;;;;;8261399;28;20395;-71
2021/08/15 00:55:04;;;;;;;13.10;8.45;;;;;;;;;;8261547;28;20064;-71
2021/08/15 00:59:10;;;;;;;12.43;7.90;;;;;;;;;;8264207;28;20375;-71
2021/08/15 01:03:15;;;;;;;14.77;8.05;;;;;;;;;;8262528;28;20459;-71
2021/08/15 01:07:20;;;;;;;11.95;8.25;;;;;;;;;;8262484;28;20360;-71
2021/08/15 01:11:25;;;;;;;13.77;8.50;;;;;;;;;;8262804;28;20694;-71
2021/08/15 01:15:31;;;;;;;15.98;8.02;;;;;;;;;;8262683;28;20049;-72
2021/08/15 01:19:36;;;;;;;11.02;7.55;;;;;;;;;;8243805;28;20457;-71
2021/08/15 01:23:45;;;;;;;15.27;7.70;;;;;;;;;;8229521;28;20334;-71
2021/08/15 01:27:51;;;;;;;10.52;7.63;;;;;;;;;;8243210;28;20472;-71
2021/08/15 01:31:57;;;;;;;13.37;8.43;;;;;;;;;;8229418;28;20049;-71
2021/08/15 01:36:05;;;;;;;11.77;7.70;;;;;;;;;;8244286;28;20468;-71
2021/08/15 01:40:12;;;;;;;13.40;8.55;;;;;;;;;;8229606;28;20041;-71
2021/08/15 01:44:17;;;;;;;12.87;8.43;;;;;;;;;;8242873;28;20480;-71
2021/08/15 01:48:22;;;;;;;11.52;7.68;;;;;;;;;;8229208;28;20834;-71
2021/08/15 01:52:27;;;;;;;14.25;8.00;;;;;;;;;;8244835;28;20479;-72
2021/08/15 01:56:32;;;;;;;12.70;8.63;;;;;;;;;;8228739;28;20461;-71
2021/08/15 02:00:43;;;;;;;14.50;8.43;;;;;;;;;;8229532;28;20388;-71
2021/08/15 02:04:48;;;;;;;14.32;8.77;;;;;;;;;;8243124;28;20468;-71
2021/08/15 02:08:54;;;;;;;15.52;9.20;;;;;;;;;;8243322;28;20476;-71
2021/08/15 02:13:01;;;;;;;15.13;8.95;;;;;;;;;;8228581;28;20041;-72
2021/08/15 02:17:06;;;;;;;12.88;8.57;;;;;;;;;;8242253;28;20384;-71
2021/08/15 02:21:10;;;;;;;13.18;8.10;;;;;;;;;;8261798;28;20371;-70
2021/08/15 02:25:20;;;;;;;16.88;8.93;;;;;;;;;;8260974;28;20340;-71
2021/08/15 02:29:25;;;;;;;13.68;9.27;;;;;;;;;;8258726;28;20049;-71
2021/08/15 02:33:30;;;;;;;15.98;8.73;;;;;;;;;;8259231;28;20041;-71
2021/08/15 02:37:37;;;;;;;19.48;9.10;;;;;;;;;;8259492;28;20068;-71
2021/08/15 02:41:43;;;;;;;22.52;10.15;;;;;;;;;;8261653;28;20476;-71
2021/08/15 02:45:49;;;;;;;15.32;9.15;;;;;;;;;;8243655;28;20591;-71
2021/08/15 02:49:54;;;;;;;13.82;8.52;;;;;;;;;;8259671;28;20356;-71
2021/08/15 02:53:59;;;;;;;13.63;8.50;;;;;;;;;;8259934;28;20045;-71
2021/08/15 02:58:04;;;;;;;16.17;8.18;;;;;;;;;;8242214;28;20348;-71
2021/08/15 03:02:14;;;;;;;12.73;8.27;;;;;;;;;;8258287;28;20537;-71
2021/08/15 03:06:20;;;;;;;14.25;8.80;;;;;;;;;;8241466;28;20372;-71
2021/08/15 03:10:25;;;;;;;14.27;9.05;;;;;;;;;;8259573;28;20338;-71
2021/08/15 03:14:30;;;;;;;16.75;8.70;;;;;;;;;;8259982;28;20033;-71
2021/08/15 03:18:35;;;;;;;15.23;9.80;;;;;;;;;;8257411;28;20053;-71
2021/08/15 03:22:41;;;;;;;17.65;9.45;;;;;;;;;;8258308;28;20351;-71
2021/08/15 03:26:46;;;;;;;18.40;8.80;;;;;;;;;;8257652;28;20475;-71
2021/08/15 03:30:52;;;;;;;17.80;8.93;;;;;;;;;;8259102;28;20357;-71
2021/08/15 03:34:57;;;;;;;18.92;10.13;;;;;;;;;;8258373;28;20357;-71
2021/08/15 03:39:05;;;;;;;14.00;8.52;;;;;;;;;;8257040;28;20071;-71
2021/08/15 03:43:10;;;;;;;16.88;8.95;;;;;;;;;;8255247;28;20352;-71
2021/08/15 03:47:15;;;;;;;14.52;9.20;;;;;;;;;;8256427;28;20444;-71
2021/08/15 03:51:21;;;;;;;14.57;9.00;;;;;;;;;;8258148;28;20041;-71
2021/08/15 03:55:26;;;;;;;18.13;9.45;;;;;;;;;;8257874;28;20480;-72
2021/08/15 03:59:31;;;;;;;18.50;10.00;;;;;;;;;;8255447;28;20490;-71
2021/08/15 04:03:37;;;;;;;17.08;8.70;;;;;;;;;;8241611;28;20455;-71
2021/08/15 04:07:43;;;;;;;16.83;9.52;;;;;;;;;;8256899;28;20358;-72
2021/08/15 04:11:48;;;;;;;16.98;8.90;;;;;;;;;;8259031;28;20370;-71
2021/08/15 04:15:53;;;;;;;17.02;9.68;;;;;;;;;;8265550;28;20494;-72
2021/08/15 04:19:58;;;;;;;17.45;9.32;;;;;;;;;;8245158;28;20049;-72
2021/08/15 04:24:05;;;;;;;13.05;8.75;;;;;;;;;;8231375;28;20475;-71
2021/08/15 04:28:10;;;;;;;14.68;8.85;;;;;;;;;;8231595;28;20472;-72
2021/08/15 04:32:15;;;;;;;15.00;9.13;;;;;;;;;;8230843;28;20060;-71
2021/08/15 04:36:20;;;;;;;13.65;9.07;;;;;;;;;;8229035;28;20053;-71
2021/08/15 04:40:26;;;;;;;15.32;9.45;;;;;;;;;;8230847;28;20472;-71
2021/08/15 04:44:32;;;;;;;16.38;9.43;;;;;;;;;;8229927;28;20467;-71
2021/08/15 04:48:37;;;;;;;15.25;9.20;;;;;;;;;;8230905;28;20372;-71
2021/08/15 04:52:42;;;;;;;17.33;8.93;;;;;;;;;;8227993;28;20379;-71
2021/08/15 04:56:48;;;;;;;19.38;9.48;;;;;;;;;;8230345;28;20376;-72
2021/08/15 05:00:53;;;;;;;17.88;9.93;;;;;;;;;;8230222;28;20368;-70
2021/08/15 05:04:58;;;;;;;15.02;8.50;;;;;;;;;;8231418;28;20483;-72
2021/08/15 05:09:04;;;;;;;15.90;9.52;;;;;;;;;;8229793;28;20056;-71
2021/08/15 05:13:10;;;;;;;14.23;9.05;;;;;;;;;;8229226;28;20038;-70
2021/08/15 05:17:15;;;;;;;13.38;9.25;;;;;;;;;;8232122;28;20068;-71
2021/08/15 05:21:19;;;;;;;15.43;9.02;;;;;;;;;;8261917;28;20045;-70
2021/08/15 05:25:26;;;;;;;14.13;9.98;;;;;;;;;;8261576;28;20069;-71
2021/08/15 05:29:31;;;;;;;17.42;9.52;;;;;;;;;;8260710;28;20456;-70
2021/08/15 05:33:36;;;;;;;14.63;10.63;;;;;;;;;;8261548;28;20494;-70
2021/08/15 05:37:43;;;;;;;21.42;10.30;;;;;;;;;;8261934;28;20456;-71
2021/08/15 05:41:47;;;;;;;16.17;10.68;;;;;;;;;;8244478;28;20424;-71
2021/08/15 05:45:53;;;;;;;19.08;10.13;;;;;;;;;;8243583;28;20355;-71
2021/08/15 05:49:58;;;;;;;18.42;10.10;;;;;;;;;;8260356;28;20452;-71
2021/08/15 05:54:03;;;;;;;16.88;10.15;;;;;;;;;;8261338;28;20075;-71
2021/08/15 05:58:08;;;;;;;18.08;10.23;;;;;;;;;;8259866;28;20471;-71
2021/08/15 06:02:14;;;;;;;21.40;9.73;;;;;;;;;;8260828;28;20484;-71
2021/08/15 06:06:19;;;;;;;23.17;10.80;;;;;;;;;;8262713;28;20045;-71
2021/08/15 06:10:25;;;;;;;22.02;9.63;;;;;;;;;;8260591;28;20456;-72
2021/08/15 06:14:36;;;;;;;15.32;9.10;;;;;;;;;;8259214;28;20452;-71
2021/08/15 06:18:40;;;;;;;22.35;9.40;;;;;;;;;;8258169;28;20057;-71
2021/08/15 06:22:47;;;;;;;15.05;8.55;;;;;;;;;;8258285;28;20365;-71
2021/08/15 06:26:53;;;;;;;15.75;8.13;;;;;;;;;;8260084;28;20482;-71
2021/08/15 06:30:58;;;;;;;12.52;7.55;;;;;;;;;;8262218;28;20395;-72
2021/08/15 06:35:04;;;;;;;12.68;7.68;;;;;;;;;;8258762;28;20464;-71
2021/08/15 06:39:09;;;;;;;14.93;7.57;;;;;;;;;;8261093;28;20482;-71
2021/08/15 06:43:14;;;;;;;15.15;7.53;;;;;;;;;;8260234;28;20337;-71
2021/08/15 06:47:19;;;;;;;9.40;6.50;;;;;;;;;;8259812;28;20391;-72
2021/08/15 06:51:25;;;;;;;19.52;6.85;;;;;;;;;;8258905;28;20460;-71
2021/08/15 06:55:31;;;;;;;19.83;6.80;;;;;;;;;;8228244;28;20424;-71
2021/08/15 06:59:37;;;;;;;16.15;6.40;;;;;;;;;;8260337;28;20503;-71
2021/08/15 07:03:42;;;;;;;11.27;6.40;;;;;;;;;;8258995;28;20045;-71
2021/08/15 07:07:48;;;;;;;13.27;6.33;;;;;;;;;;8257438;28;20478;-71
2021/08/15 07:11:53;;;;;;;9.80;5.90;;;;;;;;;;8259565;28;20049;-72
2021/08/15 07:15:58;;;;;;;12.40;6.63;;;;;;;;;;8256589;28;20375;-71
2021/08/15 07:20:06;;;;;;;10.13;6.18;;;;;;;;;;8239136;28;20500;-72
2021/08/15 07:24:11;;;;;;;10.70;5.65;;;;;;;;;;8225759;28;20478;-71
2021/08/15 07:28:18;;;;;;;13.27;6.05;;;;;;;;;;8225518;28;20507;-71
2021/08/15 07:32:24;;;;;;;10.52;5.97;;;;;;;;;;8225720;28;20488;-71
2021/08/15 07:36:29;;;;;;;11.57;5.82;;;;;;;;;;8239826;28;20356;-72
2021/08/15 07:40:35;;;;;;;10.60;5.80;;;;;;;;;;8240749;28;20390;-71
2021/08/15 07:44:40;;;;;;;10.02;5.53;;;;;;;;;;8223245;28;20064;-72
2021/08/15 07:48:45;;;;;;;15.82;5.55;;;;;;;;;;8228072;28;20380;-71
2021/08/15 07:52:50;;;;;;;10.82;4.57;;;;;;;;;;8241146;28;20483;-72
2021/08/15 07:56:58;;;;;;;7.38;4.38;;;;;;;;;;8225273;28;20302;-71
2021/08/15 08:01:03;;;;;;;8.18;4.10;;;;;;;;;;8224709;28;20499;-71
2021/08/15 08:05:09;;;;;;;11.40;5.35;;;;;;;;;;8238499;28;20457;-73
2021/08/15 08:09:13;;;;;;;14.05;6.25;;;;;;;;;;8225817;28;20482;-74
2021/08/15 08:13:18;;;;;;;12.00;5.15;;;;;;;;;;8192212;28;20558;-76
2021/08/15 08:17:23;;;;;;;8.32;4.47;;;;;;;;;;8046986;28;20372;-75
2021/08/15 08:21:27;;;;;;;8.20;3.97;;;;;;;;;;8144138;28;20123;-77
2021/08/15 08:25:31;;;;;;;8.45;4.28;;;;;;;;;;8190559;28;20046;-76
2021/08/15 08:29:35;;;;;;;6.60;3.65;;;;;;;;;;8191877;28;20438;-75
2021/08/15 08:33:40;;;;;;;6.53;3.58;;;;;;;;;;8118076;28;20055;-75
2021/08/15 08:37:46;;;;;;;9.02;3.28;;;;;;;;;;8154991;28;20369;-74
2021/08/15 08:41:51;;;;;;;8.73;3.55;;;;;;;;;;8192441;28;20481;-74
2021/08/15 08:45:56;;;;;;;5.20;3.53;;;;;;;;;;8190082;28;20465;-74
2021/08/15 08:50:01;;;;;;;5.18;3.10;;;;;;;;;;8189614;28;20049;-76
2021/08/15 08:54:06;;;;;;;3.67;2.72;;;;;;;;;;8190193;28;20495;-75
2021/08/15 08:58:10;;;;;;;4.63;2.70;;;;;;;;;;8027329;28;20453;-75
2021/08/15 09:02:15;;;;;;;10.77;3.92;;;;;;;;;;8117912;28;20046;-73
2021/08/15 09:06:22;;;;;;;;;;;;;;;;;;8055256;28;20063;-73
2021/08/15 09:10:38;;;;;;;7.60;3.20;;;;;;;;;;8225024;28;19944;-74
2021/08/15 09:14:42;;;;;;;5.38;3.17;;;;;;;;;;8229786;28;20459;-73
2021/08/15 09:18:47;;;;;;;3.97;3.08;;;;;;;;;;8242073;28;20492;-74
2021/08/15 09:22:52;;;;;;;3.92;3.20;;;;;;;;;;8237106;28;20363;-74
2021/08/15 09:27:00;;;;;;;;;;;;;;;;;;8227070;28;20484;-73
2021/08/15 09:31:31;;;;;;;4.47;3.40;;;;;;;;;;8188734;28;20266;-73
2021/08/15 09:35:37;;;;;;;5.05;3.30;;;;;;;;;;8230249;28;20050;-73
2021/08/15 09:39:42;;;;;;;7.47;3.80;;;;;;;;;;8226815;28;20045;-72
2021/08/15 09:43:47;;;;;;;5.83;4.10;;;;;;;;;;8230474;28;20045;-74
2021/08/15 09:47:52;;;;;;;9.35;4.00;;;;;;;;;;8201244;28;20821;-73
2021/08/15 09:51:58;;;;;;;4.80;3.63;;;;;;;;;;8194638;28;20435;-74
2021/08/15 09:56:04;;;;;;;9.88;3.33;;;;;;;;;;8207437;28;20370;-74
2021/08/15 10:00:30;;;;;;;14.32;3.38;;;;;;;;;;8181810;28;20103;-73
2021/08/15 10:04:35;;;;;;;3.72;2.88;;;;;;;;;;8223972;28;20465;-74
2021/08/15 10:08:41;;;;;;;5.57;3.50;;;;;;;;;;8211344;28;20221;-73
2021/08/15 10:12:46;;;;;;;6.30;3.58;;;;;;;;;;8203216;28;20484;-73
2021/08/15 10:17:01;;;;;;;8.02;4.03;;;;;;;;;;8222967;28;20041;-74
2021/08/15 10:21:21;;;;;;;5.43;3.07;;;;;;;;;;8222258;28;20399;-73
2021/08/15 10:25:43;;;;;;;5.55;3.35;;;;;;;;;;8206438;28;20529;-73
2021/08/15 10:29:49;;;;;;;5.05;3.28;;;;;;;;;;8227413;28;20041;-73
2021/08/15 10:33:59;;;;;;;7.43;3.88;;;;;;;;;;8227579;28;20103;-73
2021/08/15 10:38:09;;;;;;;7.43;4.25;;;;;;;;;;8225608;28;20049;-74
2021/08/15 10:42:41;;;;;;;7.55;4.50;;;;;;;;;;8227038;28;20061;-73
2021/08/15 10:47:16;;;;;;;9.65;4.65;;;;;;;;;;8220581;28;20045;-73
2021/08/15 10:51:52;;;;;;;;;;;;;;;;;;8238841;28;20357;-73
2021/08/15 10:56:06;;;;;;;8.30;4.28;;;;;;;;;;8228355;28;20282;-73
2021/08/15 11:00:29;;;;;;;5.97;3.05;;;;;;;;;;8226246;28;20477;-73
2021/08/15 11:04:35;;;;;;;6.05;3.80;;;;;;;;;;8237609;28;20487;-73
2021/08/15 11:08:40;;;;;;;7.60;3.97;;;;;;;;;;8226376;28;20071;-73
2021/08/15 11:13:15;;;;;;;6.18;3.65;;;;;;;;;;8238368;28;20376;-73
2021/08/15 11:17:20;;;;;;;6.35;3.45;;;;;;;;;;8227821;28;20349;-74
2021/08/15 11:22:05;;;;;;;5.88;3.50;;;;;;;;;;8271418;28;20457;-73
2021/08/15 11:26:15;;;;;;;4.28;3.20;;;;;;;;;;8258500;28;20510;-73
2021/08/15 11:30:22;;;;;;;5.85;3.25;;;;;;;;;;8257291;28;20357;-73
2021/08/15 11:34:28;;;;;;;5.78;3.33;;;;;;;;;;8257706;28;20492;-73
2021/08/15 11:38:34;;;;;;;5.35;3.35;;;;;;;;;;8259020;28;20364;-73
2021/08/15 11:42:40;;;;;;;4.45;3.03;;;;;;;;;;8255528;28;20387;-72
2021/08/15 11:46:45;;;;;;;3.20;2.53;;;;;;;;;;8255798;28;20161;-73
2021/08/15 11:50:57;;;;;;;4.13;2.43;;;;;;;;;;8274244;28;20029;-72
2021/08/15 11:55:09;;;;;;;6.57;3.13;;;;;;;;;;8240765;28;20375;-72
2021/08/15 11:59:17;;;;;;;5.78;3.33;;;;;;;;;;6984163;28;10001758;-73
2021/08/15 12:03:25;;;;;;;7.20;3.38;;;;;;;;;;8245442;28;20049;-73
2021/08/15 12:07:30;;;;;;;4.63;3.22;;;;;;;;;;8241810;28;20059;-73
2021/08/15 12:11:36;;;;;;;5.10;3.53;;;;;;;;;;8240090;28;20467;-72
2021/08/15 12:15:55;;;;;;;5.85;3.08;;;;;;;;;;8241371;28;20494;-73
2021/08/15 12:20:21;;;;;;;6.18;3.35;;;;;;;;;;8242257;28;20464;-74
2021/08/15 12:24:29;;;;;;;;;;;;;;;;;;8257188;28;20417;-72
2021/08/15 12:28:39;;;;;;;7.65;3.28;;;;;;;;;;8260123;28;20259;-74
2021/08/15 12:32:44;;;;;;;5.28;3.05;;;;;;;;;;8241999;28;20400;-72
2021/08/15 12:36:54;;;;;;;4.25;2.53;;;;;;;;;;8244592;28;20345;-76
2021/08/15 12:41:26;;;;;;;3.10;2.25;;;;;;;;;;8263045;28;20679;-73
2021/08/15 12:45:40;;;;;;;5.07;2.20;;;;;;;;;;8247870;28;20053;-74
2021/08/15 12:49:48;;;;;;;3.05;1.85;;;;;;;;;;8248530;28;20363;-73
2021/08/15 12:53:53;;;;;;;3.15;2.00;;;;;;;;;;8245901;28;20415;-73
2021/08/15 12:58:13;;;;;;;2.90;1.80;;;;;;;;;;8263128;28;20483;-74
2021/08/15 13:02:18;;;;;;;2.33;1.90;;;;;;;;;;8265683;28;20037;-72
2021/08/15 13:06:25;;;;;;;3.97;2.03;;;;;;;;;;8246184;28;20467;-73
2021/08/15 13:10:31;;;;;;;3.05;1.50;;;;;;;;;;8244455;28;20348;-72
2021/08/15 13:14:36;;;;;;;3.97;1.60;;;;;;;;;;8262542;28;20360;-74
2021/08/15 13:18:42;;;;;;;5.53;2.00;;;;;;;;;;8261267;28;20352;-73
2021/08/15 13:22:47;;;;;;;3.40;1.90;;;;;;;;;;8263936;28;20480;-72
2021/08/15 13:26:53;;;;;;;2.63;2.00;;;;;;;;;;8263830;28;20367;-73
2021/08/15 13:30:58;;;;;;;4.03;2.15;;;;;;;;;;8262787;28;20460;-74
2021/08/15 13:35:06;;;;;;;5.30;2.17;;;;;;;;;;8262031;28;20475;-74
2021/08/15 13:39:11;;;;;;;3.58;2.65;;;;;;;;;;8245179;28;20486;-73
2021/08/15 13:43:17;;;;;;;3.03;2.20;;;;;;;;;;8259334;28;20476;-72
2021/08/15 13:47:23;;;;;;;3.22;2.13;;;;;;;;;;8261830;28;20342;-73
2021/08/15 13:51:29;;;;;;;5.88;2.22;;;;;;;;;;8243790;28;20406;-73
2021/08/15 13:55:35;;;;;;;2.67;1.88;;;;;;;;;;8262042;28;20044;-73
2021/08/15 13:59:43;;;;;;;2.40;2.00;;;;;;;;;;8263370;28;20348;-73
2021/08/15 14:03:49;;;;;;;2.70;2.30;;;;;;;;;;8260855;28;20345;-73
2021/08/15 14:07:54;;;;;;;3.33;2.47;;;;;;;;;;8260791;28;20383;-73
2021/08/15 14:12:00;;;;;;;3.55;2.35;;;;;;;;;;8261623;28;20040;-73
2021/08/15 14:16:09;;;;;;;4.78;2.50;;;;;;;;;;8244274;28;20053;-73
2021/08/15 14:20:15;;;;;;;5.97;2.40;;;;;;;;;;8243174;28;20384;-72
2021/08/15 14:24:21;;;;;;;3.05;2.53;;;;;;;;;;8262125;28;20348;-72
2021/08/15 14:28:26;;;;;;;4.70;2.53;;;;;;;;;;8261775;28;20474;-72
2021/08/15 14:32:32;;;;;;;3.77;2.50;;;;;;;;;;8260472;28;20068;-73
2021/08/15 14:36:37;;;;;;;4.35;2.53;;;;;;;;;;8240704;28;20464;-73
2021/08/15 14:40:43;;;;;;;5.63;2.53;;;;;;;;;;8259791;28;20349;-74
2021/08/15 14:44:49;;;;;;;4.25;2.67;;;;;;;;;;8258592;28;20480;-72
2021/08/15 14:48:54;;;;;;;3.85;2.42;;;;;;;;;;8262206;28;20399;-73
2021/08/15 14:52:59;;;;;;;5.65;2.60;;;;;;;;;;8258204;28;20057;-73
2021/08/15 14:57:39;;;;;;;4.03;2.42;;;;;;;;;;8258249;28;20463;-73
2021/08/15 15:02:00;;;;;;;6.60;2.42;;;;;;;;;;8189207;28;20487;-73
2021/08/15 15:06:06;;;;;;;2.90;2.58;;;;;;;;;;8190304;28;20454;-73
2021/08/15 15:10:11;;;;;;;3.90;2.35;;;;;;;;;;8189236;28;20477;-72
2021/08/15 15:14:16;;;;;;;3.95;2.55;;;;;;;;;;8174632;28;20492;-72
2021/08/15 15:18:21;;;;;;;5.20;2.38;;;;;;;;;;8169743;28;20495;-73
2021/08/15 15:22:26;;;;;;;3.17;2.40;;;;;;;;;;8143154;28;20373;-72
2021/08/15 15:26:33;;;;;;;6.05;2.50;;;;;;;;;;8189502;28;20473;-73
2021/08/15 15:30:38;;;;;;;4.45;2.92;;;;;;;;;;8170782;28;20469;-73
2021/08/15 15:34:43;;;;;;;3.55;2.70;;;;;;;;;;8188737;28;20408;-73
2021/08/15 15:38:49;;;;;;;4.40;2.25;;;;;;;;;;8188637;28;20369;-73
2021/08/15 15:42:54;;;;;;;4.05;2.33;;;;;;;;;;8172287;28;20620;-73
2021/08/15 15:46:59;;;;;;;4.88;2.50;;;;;;;;;;8188820;28;20096;-73
2021/08/15 15:51:05;;;;;;;4.25;2.33;;;;;;;;;;8188623;28;20377;-73
2021/08/15 15:55:10;;;;;;;12.57;2.47;;;;;;;;;;8187693;28;20068;-73
2021/08/15 15:59:16;;;;;;;5.72;2.67;;;;;;;;;;8199701;28;20388;-73
2021/08/15 16:03:21;;;;;;;5.72;2.50;;;;;;;;;;8224749;28;20503;-73
2021/08/15 16:07:27;;;;;;;4.78;2.47;;;;;;;;;;8224526;28;20510;-73
2021/08/15 16:11:32;;;;;;;4.88;2.70;;;;;;;;;;8226075;28;20476;-73
2021/08/15 16:15:37;;;;;;;5.22;2.60;;;;;;;;;;8225387;28;20045;-73
2021/08/15 16:19:42;;;;;;;3.53;2.50;;;;;;;;;;8224167;28;20159;-73
2021/08/15 16:23:47;;;;;;;5.68;3.67;;;;;;;;;;8224938;28;20453;-73
2021/08/15 16:27:53;;;;;;;6.93;2.65;;;;;;;;;;8225031;28;20376;-73
2021/08/15 16:31:58;;;;;;;5.22;3.08;;;;;;;;;;8219771;28;20079;-73
2021/08/15 16:36:04;;;;;;;6.28;2.72;;;;;;;;;;8223762;28;20068;-73
2021/08/15 16:40:10;;;;;;;9.57;2.35;;;;;;;;;;8224177;28;20483;-73
2021/08/15 16:44:16;;;;;;;4.63;2.73;;;;;;;;;;8222792;28;20449;-73
2021/08/15 16:48:21;;;;;;;4.55;2.53;;;;;;;;;;8223769;28;20338;-73
2021/08/15 16:52:27;;;;;;;3.38;2.40;;;;;;;;;;8224505;28;20465;-73
2021/08/15 16:56:34;;;;;;;3.80;2.50;;;;;;;;;;8222709;28;20453;-73
2021/08/15 17:00:39;;;;;;;5.57;3.38;;;;;;;;;;8224133;28;20046;-73
2021/08/15 17:04:44;;;;;;;14.13;5.28;;;;;;;;;;8223235;28;20076;-73
2021/08/15 17:08:49;;;;;;;24.13;5.50;;;;;;;;;;8220079;28;20499;-73
2021/08/15 17:12:55;;;;;;;14.73;5.38;;;;;;;;;;8238482;28;20371;-73
2021/08/15 17:17:03;;;;;;;10.45;3.20;;;;;;;;;;8223111;28;20472;-73
2021/08/15 17:21:09;;;;;;;4.43;2.65;;;;;;;;;;8227923;28;20487;-73
2021/08/15 17:25:14;;;;;;;8.02;3.00;;;;;;;;;;8232036;28;20388;-73
2021/08/15 17:29:19;;;;;;;6.22;2.60;;;;;;;;;;8228260;28;20468;-73
2021/08/15 17:33:24;;;;;;;3.85;2.85;;;;;;;;;;8229680;28;20510;-73
2021/08/15 17:37:30;;;;;;;7.32;4.72;;;;;;;;;;8228964;28;20456;-73
2021/08/15 17:41:35;;;;;;;5.70;3.28;;;;;;;;;;8228947;28;20482;-73
2021/08/15 17:45:41;;;;;;;4.72;3.20;;;;;;;;;;8227601;28;20491;-73
2021/08/15 17:49:46;;;;;;;5.43;3.25;;;;;;;;;;8229353;28;20468;-73
2021/08/15 17:53:51;;;;;;;6.97;2.75;;;;;;;;;;8229125;28;20356;-73
2021/08/15 17:57:56;;;;;;;5.28;3.08;;;;;;;;;;8226119;28;20407;-73
2021/08/15 18:02:02;;;;;;;9.20;3.50;;;;;;;;;;8228548;28;20067;-73
2021/08/15 18:06:07;;;;;;;8.88;3.60;;;;;;;;;;8229995;28;20453;-73
2021/08/15 18:10:16;;;;;;;7.18;3.45;;;;;;;;;;8198400;28;20376;-73
2021/08/15 18:14:25;;;;;;;5.07;3.17;;;;;;;;;;8251891;28;20364;-73
2021/08/15 18:18:31;;;;;;;13.27;3.50;;;;;;;;;;8234839;28;20388;-73
2021/08/15 18:22:36;;;;;;;7.47;3.35;;;;;;;;;;8261863;28;20451;-73
2021/08/15 18:26:44;;;;;;;6.68;3.28;;;;;;;;;;8260436;28;20509;-73
2021/08/15 18:30:50;;;;;;;11.73;4.65;;;;;;;;;;8257905;28;20340;-73
2021/08/15 18:34:55;;;;;;;8.15;3.70;;;;;;;;;;8260173;28;20367;-73
2021/08/15 18:39:02;;;;;;;3.95;2.95;;;;;;;;;;8260176;28;20329;-73
2021/08/15 18:43:07;;;;;;;3.45;2.92;;;;;;;;;;8259939;28;20329;-72
2021/08/15 18:47:12;;;;;;;5.75;3.53;;;;;;;;;;8260406;28;20041;-74
2021/08/15 18:51:18;;;;;;;5.85;3.70;;;;;;;;;;8259824;28;20372;-73
2021/08/15 18:55:23;;;;;;;5.50;3.30;;;;;;;;;;8259411;28;20487;-73
2021/08/15 18:59:29;;;;;;;5.25;3.17;;;;;;;;;;8240476;28;20352;-73
2021/08/15 19:03:38;;;;;;;6.22;3.65;;;;;;;;;;8259530;28;20479;-73
2021/08/15 19:07:43;;;;;;;8.07;3.63;;;;;;;;;;8258131;28;20574;-73
2021/08/15 19:11:48;;;;;;;13.63;5.07;;;;;;;;;;8258969;28;20063;-73
2021/08/15 19:15:54;;;;;;;5.32;3.75;;;;;;;;;;8241013;28;20348;-73
2021/08/15 19:20:00;;;;;;;5.10;3.50;;;;;;;;;;8258868;28;20045;-73
2021/08/15 19:24:05;;;;;;;5.63;3.60;;;;;;;;;;8258750;28;20482;-73
2021/08/15 19:28:11;;;;;;;5.88;3.95;;;;;;;;;;8259196;28;20045;-73
2021/08/15 19:32:16;;;;;;;9.65;3.92;;;;;;;;;;8260313;28;20352;-73
2021/08/15 19:36:22;;;;;;;8.70;4.35;;;;;;;;;;8260172;28;20341;-73
2021/08/15 19:40:27;;;;;;;6.10;3.88;;;;;;;;;;8241609;28;20041;-74
2021/08/15 19:44:33;;;;;;;4.57;3.35;;;;;;;;;;8185990;28;20356;-73
2021/08/15 19:48:38;;;;;;;8.18;3.80;;;;;;;;;;8224339;28;20376;-73
2021/08/15 19:52:43;;;;;;;12.43;3.67;;;;;;;;;;8257739;28;20651;-73
2021/08/15 19:56:48;;;;;;;5.40;3.35;;;;;;;;;;8258058;28;20499;-72
2021/08/15 20:01:08;;;;;;;5.10;3.28;;;;;;;;;;8258553;28;20493;-73
2021/08/15 20:05:14;;;;;;;8.43;3.72;;;;;;;;;;8256100;28;20451;-73
2021/08/15 20:09:19;;;;;;;5.85;3.58;;;;;;;;;;8258370;28;20048;-73
2021/08/15 20:13:25;;;;;;;11.77;4.03;;;;;;;;;;8257831;28;20548;-73
2021/08/15 20:17:30;;;;;;;8.52;4.10;;;;;;;;;;8239800;28;20476;-73
2021/08/15 20:21:34;;;;;;;5.78;3.58;;;;;;;;;;8241114;28;20380;-72
2021/08/15 20:25:39;;;;;;;5.38;3.67;;;;;;;;;;8256107;28;20075;-73
2021/08/15 20:29:44;;;;;;;9.23;3.63;;;;;;;;;;8257217;28;20501;-73
2021/08/15 20:33:50;;;;;;;6.88;3.95;;;;;;;;;;8239146;28;20371;-73
2021/08/15 20:37:55;;;;;;;20.17;4.55;;;;;;;;;;8256773;28;20351;-73
2021/08/15 20:42:03;;;;;;;6.10;4.10;;;;;;;;;;8238526;28;20502;-73
2021/08/15 20:46:08;;;;;;;7.13;4.38;;;;;;;;;;8256392;28;20079;-73
2021/08/15 20:50:14;;;;;;;6.80;4.22;;;;;;;;;;8240282;28;20460;-72
2021/08/15 20:54:19;;;;;;;6.93;3.78;;;;;;;;;;8260529;28;20041;-73
2021/08/15 20:58:24;;;;;;;4.90;3.65;;;;;;;;;;8263130;28;20048;-73
2021/08/15 21:02:29;;;;;;;7.15;4.13;;;;;;;;;;8244996;28;20340;-72
2021/08/15 21:06:38;;;;;;;9.52;3.83;;;;;;;;;;8246164;28;20472;-72
2021/08/15 21:10:46;;;;;;;5.85;3.90;;;;;;;;;;8229055;28;20371;-73
2021/08/15 21:14:51;;;;;;;7.35;4.60;;;;;;;;;;8244682;28;20464;-72
2021/08/15 21:18:56;;;;;;;7.07;4.10;;;;;;;;;;8262340;28;20403;-73
2021/08/15 21:23:01;;;;;;;8.55;4.53;;;;;;;;;;8244692;28;20372;-72
2021/08/15 21:27:06;;;;;;;6.88;4.55;;;;;;;;;;8245327;28;20060;-72
2021/08/15 21:31:12;;;;;;;7.20;4.85;;;;;;;;;;8262354;28;20049;-72
2021/08/15 21:35:18;;;;;;;6.80;4.45;;;;;;;;;;8261522;28;20342;-73
2021/08/15 21:39:23;;;;;;;9.10;4.30;;;;;;;;;;8261553;28;20052;-72
2021/08/15 21:43:29;;;;;;;8.98;4.57;;;;;;;;;;8261649;28;20472;-72
2021/08/15 21:47:35;;;;;;;8.75;4.65;;;;;;;;;;8245236;28;20370;-73
2021/08/15 21:51:40;;;;;;;7.45;4.20;;;;;;;;;;8261669;28;20076;-74
2021/08/15 21:55:45;;;;;;;5.28;3.85;;;;;;;;;;8260960;28;20041;-72
2021/08/15 21:59:50;;;;;;;10.77;4.53;;;;;;;;;;8259617;28;20379;-73
2021/08/15 22:03:56;;;;;;;7.35;4.40;;;;;;;;;;8260863;28;20344;-72
2021/08/15 22:08:01;;;;;;;6.53;4.63;;;;;;;;;;8260577;28;20360;-73
2021/08/15 22:12:07;;;;;;;10.73;5.00;;;;;;;;;;8261475;28;20462;-72
2021/08/15 22:16:12;;;;;;;8.57;4.82;;;;;;;;;;8260524;28;20068;-72
2021/08/15 22:20:17;;;;;;;7.82;4.15;;;;;;;;;;8225389;28;20481;-73
2021/08/15 22:24:25;;;;;;;6.95;4.75;;;;;;;;;;8227609;28;20365;-73
2021/08/15 22:28:32;;;;;;;6.13;4.40;;;;;;;;;;8227129;28;20384;-73
2021/08/15 22:32:38;;;;;;;8.23;4.15;;;;;;;;;;8226589;28;20468;-73
2021/08/15 22:36:44;;;;;;;7.20;5.13;;;;;;;;;;8226962;28;20464;-72
2021/08/15 22:40:49;;;;;;;6.75;4.68;;;;;;;;;;8226999;28;20361;-72
2021/08/15 22:44:54;;;;;;;7.22;5.18;;;;;;;;;;8226987;28;20388;-72
2021/08/15 22:49:00;;;;;;;8.10;4.97;;;;;;;;;;8225933;28;20490;-73
2021/08/15 22:53:05;;;;;;;10.65;5.00;;;;;;;;;;8227486;28;20064;-72
2021/08/15 22:57:10;;;;;;;7.13;4.78;;;;;;;;;;8226359;28;20479;-72
2021/08/15 23:01:16;;;;;;;8.55;4.63;;;;;;;;;;8227610;28;20445;-73
2021/08/15 23:05:21;;;;;;;9.57;5.28;;;;;;;;;;8226680;28;20365;-73
2021/08/15 23:09:26;;;;;;;7.43;4.60;;;;;;;;;;8225836;28;20065;-72
2021/08/15 23:13:31;;;;;;;7.07;4.78;;;;;;;;;;8226560;28;20541;-72
2021/08/15 23:17:38;;;;;;;7.22;4.90;;;;;;;;;;8226025;28;20459;-73
2021/08/15 23:21:42;;;;;;;8.32;5.10;;;;;;;;;;8242523;28;20562;-72
2021/08/15 23:25:47;;;;;;;7.97;5.00;;;;;;;;;;8258374;28;20533;-73
2021/08/15 23:29:53;;;;;;;7.60;5.22;;;;;;;;;;8257285;28;20490;-72
2021/08/15 23:33:58;;;;;;;9.07;4.90;;;;;;;;;;8258395;28;20360;-72
2021/08/15 23:38:04;;;;;;;9.10;5.55;;;;;;;;;;8224759;28;20480;-72
2021/08/15 23:42:09;;;;;;;7.32;5.00;;;;;;;;;;8257905;28;20102;-73
2021/08/15 23:46:14;;;;;;;11.07;5.53;;;;;;;;;;8257927;28;20490;-72
2021/08/15 23:50:19;;;;;;;7.13;4.60;;;;;;;;;;8258235;28;20033;-72
2021/08/15 23:54:25;;;;;;;8.15;5.25;;;;;;;;;;8258285;28;20075;-73
2021/08/15 23:58:30;;;;;;;12.68;4.65;;;;;;;;;;8241272;28;20057;-72
